Time;durP1;ratioP1;P1;durP2;ratioP2;P2;SDS_P1;SDS_P2;PMS_P1;PMS_P2;Temp;Humidity;BMP_temperature;BMP_pressure;BME280_temperature;BME280_humidity;BME280_pressure;Samples;Min_cycle;Max_cycle;Signal;HPM_P1;HPM_P2
2021/09/03 00:00:27;;;;;;;2.95;1.73;;;;;;;15.30;70.72;93317.94;4822875;29;20113;-92
2021/09/03 00:10:16;;;;;;;2.80;1.90;;;;;;;15.23;70.99;93333.38;4847185;29;20063;-94
2021/09/03 00:13:04;;;;;;;2.67;1.80;;;;;;;14.87;71.35;93278.69;4829703;29;20046;-94
2021/09/03 00:19:28;;;;;;;6.03;2.22;;;;;;;14.98;71.45;93299.28;4835359;29;20057;-92
2021/09/03 00:25:52;;;;;;;;;;;;;;;;;;;;;
2021/09/03 00:29:11;;;;;;;;;;;;;;;;;;;;;
2021/09/03 00:32:19;;;;;;;3.28;1.80;;;;;;;14.95;70.58;93281.44;4849729;29;20048;-93
2021/09/03 00:35:19;;;;;;;3.33;2.03;;;;;;;15.25;69.60;93302.22;4849523;29;20061;-93
2021/09/03 00:38:44;;;;;;;4.47;1.98;;;;;;;15.28;68.41;93262.06;4847802;29;20052;-92
2021/09/03 00:41:55;;;;;;;5.05;2.45;;;;;;;15.70;68.27;93320.81;4856046;29;20049;-92
2021/09/03 00:44:44;;;;;;;3.47;2.28;;;;;;;15.62;67.91;93307.22;4857787;29;20053;-93
2021/09/03 00:51:37;;;;;;;7.75;2.08;;;;;;;15.76;68.19;93324.91;4835315;29;20563;-93
2021/09/03 00:54:40;;;;;;;;;;;;;;;;;;;;;
2021/09/03 01:01:30;;;;;;;2.78;1.92;;;;;;;15.47;69.19;93264.53;4842718;29;20054;-94
2021/09/03 01:05:16;;;;;;;2.95;1.77;;;;;;;15.45;68.96;93261.44;4846108;29;20044;-94
2021/09/03 01:08:06;;;;;;;;;;;;;;;;;;;;;
2021/09/03 01:10:57;;;;;;;2.90;1.88;;;;;;;15.47;69.08;93270.63;4874599;29;20049;-93
2021/09/03 01:17:05;;;;;;;5.60;2.15;;;;;;;15.47;68.77;93275.91;4854438;29;20045;-92
2021/09/03 01:20:09;;;;;;;2.85;1.88;;;;;;;15.50;67.76;93275.31;4843247;29;20056;-93
2021/09/03 01:23:14;;;;;;;;;;;;;;;;;;;;;
2021/09/03 01:26:12;;;;;;;4.18;1.92;;;;;;;15.82;66.91;93334.28;4846169;29;20140;-93
2021/09/03 01:36:04;;;;;;;2.95;1.67;;;;;;;15.52;65.53;93281.06;4829866;29;20050;-94
2021/09/03 01:42:18;;;;;;;4.30;1.75;;;;;;;15.56;65.77;93289.19;4854431;29;20046;-93
2021/09/03 01:45:01;;;;;;;6.00;2.30;;;;;;;15.88;65.71;93335.75;4844841;29;20496;-92
2021/09/03 01:51:54;;;;;;;;;;;;;;;;;;;;;
2021/09/03 01:58:17;;;;;;;1.65;1.10;;;;;;;15.93;65.01;93335.63;4855696;29;20053;-94
2021/09/03 02:01:40;;;;;;;5.68;1.70;;;;;;;15.84;65.22;93326.84;4865989;29;20057;-92
2021/09/03 02:05:27;;;;;;;2.08;1.48;;;;;;;15.93;64.84;93340.91;4844228;29;20042;-94
2021/09/03 02:08:15;;;;;;;4.00;1.83;;;;;;;15.86;63.70;93319.41;4859949;29;20045;-94
2021/09/03 02:11:49;;;;;;;1.83;1.17;;;;;;;15.62;64.01;93287.97;4863056;29;20045;-93
2021/09/03 02:15:09;;;;;;;;;;;;;;;;;;;;;
2021/09/03 02:18:13;;;;;;;;;;;;;;;;;;;;;
2021/09/03 02:21:41;;;;;;;2.33;1.40;;;;;;;15.82;64.33;93311.31;4843077;29;20042;-94
2021/09/03 02:24:39;;;;;;;3.95;2.30;;;;;;;15.95;64.98;93328.19;4844293;29;20065;-93
2021/09/03 02:27:40;;;;;;;4.03;2.50;;;;;;;15.64;64.81;93280.53;4829434;29;20754;-94
2021/09/03 02:30:50;;;;;;;;;;;;;;;;;;;;;
2021/09/03 02:33:37;;;;;;;;;;;;;;;;;;;;;
2021/09/03 02:37:15;;;;;;;2.15;1.33;;;;;;;15.76;64.21;93307.25;4857535;29;20523;-92
2021/09/03 02:39:49;;;;;;;2.30;1.42;;;;;;;15.52;64.05;93272.38;4843719;29;20054;-95
2021/09/03 02:43:08;;;;;;;4.93;2.08;;;;;;;15.48;64.49;93260.84;4862185;29;20049;-93
2021/09/03 02:49:00;;;;;;;4.53;2.00;;;;;;;15.42;65.25;93257.53;4849695;29;20045;-93
2021/09/03 02:52:06;;;;;;;3.22;1.52;;;;;;;15.35;65.28;93252.66;4862420;29;20124;-94
2021/09/03 02:55:12;;;;;;;1.27;1.00;;;;;;;15.66;65.49;93309.28;4843713;29;20094;-94
2021/09/03 02:58:20;;;;;;;2.13;1.42;;;;;;;15.27;65.88;93255.25;4860718;29;20411;-94
2021/09/03 03:05:31;;;;;;;;;;;;;;;;;;;;;
2021/09/03 03:12:03;;;;;;;2.80;1.80;;;;;;;15.12;67.64;93228.09;4841458;29;20049;-94
2021/09/03 03:15:12;;;;;;;1.88;1.30;;;;;;;15.14;67.86;93235.72;4852139;29;20061;-92
2021/09/03 03:18:08;;;;;;;;;;;;;;;;;;;;;
2021/09/03 03:21:10;;;;;;;;;;;;;;;;;;;;;
2021/09/03 03:24:37;;;;;;;2.20;1.27;;;;;;;15.00;67.52;93238.38;4850059;29;20054;-93
2021/09/03 03:27:33;;;;;;;;;;;;;;;;;;;;;
2021/09/03 03:33:53;;;;;;;2.15;1.40;;;;;;;14.64;68.18;93212.72;4860300;29;20085;-93
2021/09/03 03:36:54;;;;;;;;;;;;;;;;;;;;;
2021/09/03 03:40:08;;;;;;;;;;;;;;;;;;;;;
2021/09/03 03:43:15;;;;;;;2.53;1.55;;;;;;;14.36;68.51;93202.16;4859712;29;20053;-94
2021/09/03 03:46:27;;;;;;;2.50;1.33;;;;;;;14.31;68.79;93202.22;4847710;29;20050;-94
2021/09/03 03:49:20;;;;;;;2.75;1.45;;;;;;;14.21;68.91;93207.69;4848925;29;20507;-94
2021/09/03 03:52:50;;;;;;;;;;;;;;;;;;;;;
2021/09/03 03:55:39;;;;;;;1.77;1.30;;;;;;;14.17;68.97;93219.88;4855927;29;20518;-94
2021/09/03 04:05:20;;;;;;;2.35;1.50;;;;;;;13.92;69.66;93211.31;4852862;29;20392;-93
2021/09/03 04:08:46;;;;;;;1.90;1.25;;;;;;;13.78;69.79;93197.34;4856725;29;20492;-93
2021/09/03 04:11:36;;;;;;;1.13;0.88;;;;;;;13.64;69.67;93181.50;4844157;29;20058;-93
2021/09/03 04:14:52;;;;;;;1.75;1.23;;;;;;;13.64;69.63;93186.00;4831671;29;20141;-93
2021/09/03 04:18:05;;;;;;;4.25;1.83;;;;;;;13.95;69.89;93244.19;4830646;29;20121;-94
2021/09/03 04:27:58;;;;;;;1.10;0.88;;;;;;;13.42;69.40;93176.06;4845307;29;20053;-95
2021/09/03 04:31:09;;;;;;;2.05;1.35;;;;;;;13.44;69.42;93185.25;4848584;29;20045;-96
2021/09/03 04:34:08;;;;;;;2.00;0.98;;;;;;;13.49;69.26;93189.66;4831469;29;20144;-92
2021/09/03 04:37:17;;;;;;;0.93;0.80;;;;;;;13.73;69.23;93231.63;4856972;29;20056;-93
2021/09/03 04:39:59;;;;;;;1.40;1.10;;;;;;;13.71;69.11;93223.22;4852081;29;20061;-91
2021/09/03 04:42:32;;;;;;;2.60;1.23;;;;;;;13.58;68.87;93211.59;4828098;29;20105;-93
2021/09/03 04:45:05;;;;;;;0.98;0.68;;;;;;;13.53;68.49;93206.41;4826221;29;20052;-93
2021/09/03 04:47:50;;;;;;;0.93;0.77;;;;;;;13.35;68.39;93186.16;4842235;29;20069;-91
2021/09/03 04:50:30;;;;;;;;;;;;;;;;;;;;;
2021/09/03 04:53:03;;;;;;;1.63;1.10;;;;;;;13.46;67.63;93206.75;4829011;29;20097;-92
2021/09/03 04:55:38;;;;;;;2.20;1.17;;;;;;;13.27;67.33;93172.56;4839980;29;20060;-90
2021/09/03 04:58:19;;;;;;;0.70;0.70;;;;;;;13.47;67.23;93204.94;4846116;29;20063;-93
2021/09/03 05:00:49;;;;;;;2.13;1.20;;;;;;;13.51;67.11;93209.34;4853046;29;20496;-92
2021/09/03 05:03:17;;;;;;;1.45;1.10;;;;;;;13.32;66.85;93184.91;4856282;29;20057;-93
2021/09/03 05:06:09;;;;;;;;;;;;;;;;;;;;;
2021/09/03 05:09:00;;;;;;;1.80;1.30;;;;;;;13.35;66.49;93168.53;4856373;29;20049;-91
2021/09/03 05:11:51;;;;;;;;;;;;;;;;;;;;;
2021/09/03 05:14:29;;;;;;;0.95;0.77;;;;;;;13.54;65.98;93177.19;4847289;29;20053;-92
2021/09/03 05:17:21;;;;;;;1.45;1.20;;;;;;;13.95;65.67;93226.53;4856841;29;20038;-92
2021/09/03 05:20:05;;;;;;;1.65;0.93;;;;;;;13.95;65.63;93212.59;4855868;29;20073;-92
2021/09/03 05:23:07;;;;;;;1.65;0.95;;;;;;;13.94;65.32;93195.25;4833966;29;20078;-92
2021/09/03 05:25:47;;;;;;;2.17;1.30;;;;;;;13.83;65.03;93168.31;4827686;29;20530;-91
2021/09/03 05:28:46;;;;;;;;;;;;;;;;;;;;;
2021/09/03 05:31:16;;;;;;;1.88;1.25;;;;;;;13.98;65.06;93177.00;4848504;29;20045;-90
2021/09/03 05:34:04;;;;;;;1.35;0.95;;;;;;;14.09;64.51;93170.50;4838682;29;20898;-92
2021/09/03 05:37:17;;;;;;;1.42;1.00;;;;;;;14.23;64.43;93178.41;4824557;29;20446;-90
2021/09/03 05:39:58;;;;;;;1.55;1.27;;;;;;;14.46;64.30;93195.91;4827883;29;20054;-91
2021/09/03 05:45:43;;;;;;;;;;;;;;;;;;;;;
2021/09/03 05:48:24;;;;;;;3.47;1.33;;;;;;;14.55;64.16;93178.38;4847506;29;20504;-91
2021/09/03 05:51:00;;;;;;;1.38;1.02;;;;;;;14.95;63.36;93212.91;4842840;29;20049;-91
2021/09/03 05:54:06;;;;;;;;;;;;;;;;;;;;;
2021/09/03 05:56:59;;;;;;;1.55;1.00;;;;;;;15.29;61.36;93206.38;4847770;29;20137;-92
2021/09/03 05:59:39;;;;;;;2.08;1.08;;;;;;;15.24;60.54;93176.69;4828243;29;20653;-92
2021/09/03 06:02:28;;;;;;;1.75;1.38;;;;;;;15.44;60.18;93176.22;4843535;29;20049;-93
2021/09/03 06:05:10;;;;;;;1.85;1.35;;;;;;;15.85;58.67;93208.84;4842589;29;20535;-91
2021/09/03 06:07:45;;;;;;;1.90;1.07;;;;;;;16.18;57.95;93230.47;4841419;29;20076;-91
2021/09/03 06:10:46;;;;;;;2.53;1.38;;;;;;;16.06;57.40;93188.00;4841728;29;20292;-92
2021/09/03 06:13:46;;;;;;;1.23;0.98;;;;;;;16.30;56.88;93203.50;4837773;29;20053;-93
2021/09/03 06:16:44;;;;;;;1.17;0.98;;;;;;;16.43;58.14;93187.53;4855352;29;20124;-92
2021/09/03 06:22:11;;;;;;;2.20;1.25;;;;;;;16.50;60.38;93199.53;4849874;29;20518;-92
2021/09/03 06:24:44;;;;;;;1.63;1.13;;;;;;;16.32;61.31;93172.28;4856058;29;20065;-93
2021/09/03 06:27:19;;;;;;;1.75;1.02;;;;;;;16.24;61.51;93182.50;4854428;29;20050;-92
2021/09/03 06:30:17;;;;;;;;;;;;;;;;;;;;;
2021/09/03 06:33:09;;;;;;;1.70;1.13;;;;;;;16.12;61.73;93179.66;4850823;29;20046;-92
2021/09/03 06:36:07;;;;;;;;;;;;;;;;;;;;;
2021/09/03 06:39:21;;;;;;;0.77;0.65;;;;;;;16.15;63.01;93189.59;4852185;29;20479;-92
2021/09/03 06:42:32;;;;;;;;;;;;;;;;;;;;;
2021/09/03 06:45:19;;;;;;;1.75;1.10;;;;;;;16.31;63.50;93197.91;4859410;29;20130;-91
2021/09/03 06:48:02;;;;;;;1.98;1.23;;;;;;;16.47;63.85;93216.03;4845016;29;20039;-92
2021/09/03 06:55:18;;;;;;;;;;;;;;;;;;;;;
2021/09/03 06:58:57;;;;;;;;;;;;;;;;;;;;;
2021/09/03 07:02:40;;;;;;;;;;;;;;;;;;;;;
2021/09/03 07:06:57;;;;;;;;;;;;;;;;;;;;;
2021/09/03 07:13:11;;;;;;;;;;;;;;;;;;;;;
2021/09/03 07:17:11;;;;;;;;;;;;;;;;;;;;;
2021/09/03 07:20:46;;;;;;;2.03;1.17;;;;;;;17.16;59.99;93226.84;4797807;29;20077;-95
2021/09/03 07:32:25;;;;;;;;;;;;;;;;;;;;;
2021/09/03 07:35:58;;;;;;;;;;;;;;;;;;;;;
2021/09/03 07:39:31;;;;;;;7.90;1.10;;;;;;;17.45;60.48;93180.47;4803285;29;20489;-94
2021/09/03 07:42:36;;;;;;;1.38;0.98;;;;;;;17.80;57.46;93228.91;4766138;29;20094;-94
2021/09/03 07:46:01;;;;;;;;;;;;;;;;;;;;;
2021/09/03 07:49:16;;;;;;;;;;;;;;;;;;;;;
2021/09/03 07:52:59;;;;;;;;;;;;;;;;;;;;;
2021/09/03 07:56:33;;;;;;;2.40;1.33;;;;;;;18.11;55.86;93227.97;4800228;29;20050;-95
2021/09/03 08:00:16;;;;;;;;;;;;;;;;;;;;;
2021/09/03 08:10:47;;;;;;;2.08;1.27;;;;;;;19.52;51.98;93160.66;4825348;29;20046;-95
2021/09/03 08:14:17;;;;;;;;;;;;;;;;;;;;;
2021/09/03 08:25:04;;;;;;;;;;;;;;;;;;;;;
2021/09/03 08:28:26;;;;;;;2.67;1.77;;;;;;;18.03;59.99;93224.22;4811207;29;20564;-93
2021/09/03 08:35:07;;;;;;;;;;;;;;;;;;;;;
2021/09/03 08:41:04;;;;;;;2.28;1.67;;;;;;;18.41;59.60;93215.56;4799042;29;20054;-94
2021/09/03 08:53:46;;;;;;;2.25;1.50;;;;;;;20.04;55.80;93196.63;4823625;29;20497;-93
2021/09/03 08:56:33;;;;;;;2.75;1.50;;;;;;;19.56;56.04;93204.06;4809551;29;20050;-93
2021/09/03 09:00:02;;;;;;;2.53;1.55;;;;;;;19.75;55.10;93180.50;4812848;29;20486;-95
2021/09/03 09:03:20;;;;;;;;;;;;;;;;;;;;;
2021/09/03 09:09:48;;;;;;;2.30;1.33;;;;;;;20.22;52.49;93182.09;4830261;29;20060;-94
2021/09/03 09:12:54;;;;;;;3.38;1.77;;;;;;;20.12;51.24;93156.69;4869965;29;20045;-93
2021/09/03 09:16:10;;;;;;;2.50;1.60;;;;;;;21.47;52.06;93219.09;4858018;29;20121;-94
2021/09/03 09:25:59;;;;;;;;;;;;;;;;;;;;;
2021/09/03 09:28:58;;;;;;;2.83;1.60;;;;;;;21.34;49.97;93160.47;4831673;29;20149;-92
2021/09/03 09:32:31;;;;;;;;;;;;;;;;;;;;;
2021/09/03 09:35:58;;;;;;;4.93;1.83;;;;;;;21.44;51.58;93211.78;4856974;29;20056;-94
2021/09/03 09:39:21;;;;;;;2.65;1.60;;;;;;;21.16;50.90;93183.16;4845009;29;20140;-92
2021/09/03 09:42:42;;;;;;;2.00;1.30;;;;;;;21.68;52.00;93201.03;4844001;29;20076;-94
2021/09/03 09:45:27;;;;;;;3.58;1.88;;;;;;;21.15;51.55;93205.56;4843843;29;20052;-92
2021/09/03 09:48:12;;;;;;;2.67;1.58;;;;;;;20.58;51.03;93148.72;4833631;29;20060;-93
2021/09/03 09:51:39;;;;;;;;;;;;;;;;;;;;;
2021/09/03 09:58:42;;;;;;;;;;;;;;;;;;;;;
2021/09/03 10:02:06;;;;;;;0.75;0.60;;;;;;;20.49;51.51;93127.53;4839199;29;20113;-93
2021/09/03 10:05:26;;;;;;;;;;;;;;;;;;;;;
2021/09/03 10:08:50;;;;;;;2.05;1.40;;;;;;;20.15;52.46;93118.84;4848522;29;20045;-92
2021/09/03 10:11:56;;;;;;;;;;;;;;;;;;;;;
2021/09/03 10:19:16;;;;;;;;;;;;;;;;;;;;;
2021/09/03 10:26:08;;;;;;;;;;;;;;;;;;;;;
2021/09/03 10:28:41;;;;;;;3.20;1.52;;;;;;;21.08;52.52;93110.31;4842282;29;20587;-93
2021/09/03 10:31:33;;;;;;;2.47;1.48;;;;;;;21.11;51.08;93098.22;4851530;29;20046;-92
2021/09/03 10:34:27;;;;;;;4.53;1.80;;;;;;;21.52;50.44;93106.97;4858741;29;20055;-93
2021/09/03 10:37:10;;;;;;;2.05;1.38;;;;;;;21.95;48.51;93102.78;4859257;29;20053;-92
2021/09/03 10:39:56;;;;;;;2.15;1.42;;;;;;;21.38;50.63;93132.06;4859951;29;20095;-91
2021/09/03 10:42:56;;;;;;;;;;;;;;;;;;;;;
2021/09/03 10:45:53;;;;;;;;;;;;;;;;;;;;;
2021/09/03 10:48:35;;;;;;;2.83;1.45;;;;;;;21.86;47.66;93086.16;4856312;29;20142;-92
2021/09/03 10:51:12;;;;;;;1.67;0.90;;;;;;;21.47;50.25;93101.91;4831078;29;20057;-91
2021/09/03 10:53:52;;;;;;;;;;;;;;;21.61;50.58;93126.25;4841481;29;20050;-91
2021/09/03 10:57:07;;;;;;;1.58;0.98;;;;;;;21.10;51.48;93086.78;4858218;29;20381;-90
2021/09/03 11:00:14;;;;;;;2.08;1.13;;;;;;;20.38;50.95;93073.22;4844892;29;20136;-91
2021/09/03 11:03:23;;;;;;;;;;;;;;;;;;;;;
2021/09/03 11:06:41;;;;;;;;;;;;;;;;;;;;;
2021/09/03 11:09:58;;;;;;;3.17;1.80;;;;;;;20.11;54.42;93077.31;4841267;29;20050;-90
2021/09/03 11:12:36;;;;;;;1.58;1.10;;;;;;;19.85;54.63;93059.78;4810701;29;20072;-90
2021/09/03 11:15:45;;;;;;;;;;;;;;;;;;;;;
2021/09/03 11:18:54;;;;;;;1.70;1.02;;;;;;;20.50;53.88;93059.16;4827381;29;20080;-92
2021/09/03 11:21:41;;;;;;;2.58;1.17;;;;;;;20.98;52.87;93057.53;4819545;29;20045;-91
2021/09/03 11:24:19;;;;;;;2.85;1.45;;;;;;;21.51;51.95;93102.78;4810860;29;20068;-92
2021/09/03 11:27:19;;;;;;;3.22;1.75;;;;;;;20.93;52.76;93050.56;4799093;29;20057;-93
2021/09/03 11:30:10;;;;;;;4.25;2.38;;;;;;;21.17;52.76;93072.91;4824553;29;20067;-92
2021/09/03 11:32:51;;;;;;;2.38;1.45;;;;;;;21.53;51.35;93081.91;4808723;29;20132;-91
2021/09/03 11:35:42;;;;;;;3.60;2.00;;;;;;;21.96;50.62;93093.69;4824457;29;20137;-90
2021/09/03 11:38:30;;;;;;;2.92;1.65;;;;;;;21.95;51.79;93060.13;4811503;29;20057;-91
2021/09/03 11:41:36;;;;;;;2.63;1.48;;;;;;;21.73;50.81;93067.59;4793773;29;20596;-91
2021/09/03 11:44:32;;;;;;;4.57;1.60;;;;;;;21.80;50.36;93043.03;4807246;29;20141;-91
2021/09/03 11:47:46;;;;;;;;;;;;;;;;;;;;;
2021/09/03 11:50:59;;;;;;;3.38;1.73;;;;;;;22.25;49.81;93071.19;4840952;29;20054;-91
2021/09/03 11:53:42;;;;;;;3.08;1.70;;;;;;;21.76;50.57;93058.91;4839895;29;20042;-92
2021/09/03 11:56:31;;;;;;;;;;;;;;;;;;;;;
2021/09/03 11:59:58;;;;;;;;;;;;;;;;;;;;;
2021/09/03 12:03:08;;;;;;;2.38;1.50;;;;;;;21.34;49.75;93024.69;4842206;29;20473;-91
2021/09/03 12:06:16;;;;;;;3.58;1.45;;;;;;;21.68;50.77;93024.44;4845350;29;20058;-92
2021/09/03 12:08:48;;;;;;;3.20;1.75;;;;;;;21.69;49.69;93064.06;4845862;29;20054;-91
2021/09/03 12:12:00;;;;;;;1.85;1.25;;;;;;;21.68;51.06;93033.19;4849915;29;20049;-91
2021/09/03 12:14:31;;;;;;;2.78;1.63;;;;;;;21.55;52.58;93053.03;4843450;29;20041;-90
2021/09/03 12:17:26;;;;;;;;;;;;;;;;;;;;;
2021/09/03 12:20:20;;;;;;;2.63;1.40;;;;;;;21.59;51.03;93021.94;4844465;29;20070;-91
2021/09/03 12:23:39;;;;;;;;;;;;;;;;;;;;;
2021/09/03 12:27:10;;;;;;;3.10;1.80;;;;;;;21.34;52.09;93047.88;4839108;29;20053;-91
2021/09/03 12:29:54;;;;;;;;;;;;;;;;;;;;;
2021/09/03 12:33:00;;;;;;;2.28;1.45;;;;;;;21.42;51.35;93023.03;4790424;29;20107;-91
2021/09/03 12:35:49;;;;;;;3.50;2.13;;;;;;;21.99;51.06;93021.00;4804477;29;20102;-92
2021/09/03 12:38:42;;;;;;;2.22;1.55;;;;;;;21.98;51.82;93003.50;4804360;29;20050;-92
2021/09/03 12:41:25;;;;;;;;;;;;;;;;;;;;;
2021/09/03 12:44:21;;;;;;;2.45;1.58;;;;;;;21.83;51.10;93031.66;4859324;29;20045;-92
2021/09/03 12:47:37;;;;;;;3.00;1.95;;;;;;;21.85;50.96;93005.47;4850408;29;20080;-92
2021/09/03 12:50:16;;;;;;;2.92;1.73;;;;;;;21.73;51.88;92984.22;4858120;29;20056;-92
2021/09/03 12:53:28;;;;;;;2.65;1.65;;;;;;;22.30;51.34;93025.59;4826223;29;20089;-92
2021/09/03 12:56:21;;;;;;;3.20;1.90;;;;;;;21.98;51.20;92998.94;4828461;29;20057;-92
2021/09/03 12:59:06;;;;;;;4.00;2.00;;;;;;;21.22;52.16;92979.50;4839755;29;20122;-92
2021/09/03 13:01:58;;;;;;;;;;;;;;;;;;;;;
2021/09/03 13:05:13;;;;;;;2.72;1.73;;;;;;;20.66;54.11;92976.81;4857783;29;20573;-90
2021/09/03 13:11:15;;;;;;;3.47;1.70;;;;;;;20.96;54.28;93017.97;4823354;29;20206;-91
2021/09/03 13:14:14;;;;;;;2.90;1.45;;;;;;;20.49;54.63;92991.09;4857437;29;20045;-92
2021/09/03 13:16:58;;;;;;;3.30;1.60;;;;;;;20.23;55.48;92960.34;4856701;29;20058;-90
2021/09/03 13:19:37;;;;;;;3.20;1.58;;;;;;;20.87;54.31;92950.78;4848954;29;20045;-92
2021/09/03 13:22:20;;;;;;;3.08;1.73;;;;;;;21.42;53.32;92980.41;4851938;29;20088;-92
2021/09/03 13:25:00;;;;;;;2.95;1.85;;;;;;;21.59;52.72;92947.34;4838619;29;20057;-92
2021/09/03 13:30:46;;;;;;;;;;;;;;;;;;;;;
2021/09/03 13:33:23;;;;;;;2.90;1.55;;;;;;;20.35;54.89;92951.59;4842688;29;20136;-92
2021/09/03 13:36:17;;;;;;;;;;;;;;;;;;;;;
2021/09/03 13:39:05;;;;;;;4.47;1.85;;;;;;;20.56;55.63;92967.41;4856567;29;20050;-92
2021/09/03 13:42:37;;;;;;;;;;;;;;;;;;;;;
2021/09/03 13:45:46;;;;;;;5.93;2.10;;;;;;;20.15;55.64;92916.06;4855574;29;20137;-91
2021/09/03 13:48:52;;;;;;;2.13;1.17;;;;;;;20.30;55.79;92923.34;4842404;29;20041;-90
2021/09/03 13:51:49;;;;;;;4.60;1.48;;;;;;;20.11;55.78;92915.97;4852540;29;20050;-90
2021/09/03 13:55:10;;;;;;;;;;;;;;;;;;;;;
2021/09/03 13:58:03;;;;;;;3.90;1.95;;;;;;;20.25;55.90;92909.53;4860567;29;20064;-91
2021/09/03 14:01:05;;;;;;;3.78;1.80;;;;;;;19.83;58.45;92915.13;4845105;29;20058;-91
2021/09/03 14:03:45;;;;;;;2.17;1.58;;;;;;;20.09;56.65;92925.41;4842242;29;20577;-90
2021/09/03 14:06:35;;;;;;;3.13;1.67;;;;;;;20.06;56.94;92897.59;4855811;29;20057;-90
2021/09/03 14:09:36;;;;;;;;;;;;;;;;;;;;;
2021/09/03 14:12:40;;;;;;;5.10;1.85;;;;;;;20.00;57.26;92903.50;4851978;29;20071;-92
2021/09/03 14:19:38;;;;;;;;;;;;;;;;;;;;;
2021/09/03 14:22:52;;;;;;;;;;;;;;;;;;;;;
2021/09/03 14:25:33;;;;;;;;;;;;;;;;;;;;;
2021/09/03 14:31:37;;;;;;;;;;;;;;;;;;;;;
2021/09/03 14:34:34;;;;;;;3.45;2.13;;;;;;;21.50;52.45;92896.91;4845268;29;20533;-93
2021/09/03 14:41:14;;;;;;;3.95;2.20;;;;;;;21.45;53.95;92905.16;4858376;29;20049;-90
2021/09/03 14:44:07;;;;;;;2.45;1.52;;;;;;;21.58;52.99;92855.25;4845515;29;20041;-92
2021/09/03 14:47:09;;;;;;;;;;;;;;;;;;;;;
2021/09/03 14:50:00;;;;;;;3.20;2.03;;;;;;;21.61;52.21;92902.50;4841245;29;20114;-93
2021/09/03 14:53:05;;;;;;;;;;;;;;;;;;;;;
2021/09/03 14:55:53;;;;;;;;;;;;;;;;;;;;;
2021/09/03 15:01:56;;;;;;;;;;;;;;;;;;;;;
2021/09/03 15:04:51;;;;;;;4.30;2.13;;;;;;;21.72;52.21;92884.88;4832337;29;20053;-92
2021/09/03 15:07:29;;;;;;;2.92;1.88;;;;;;;21.56;52.26;92863.56;4860363;29;20041;-90
2021/09/03 15:10:40;;;;;;;3.87;2.07;;;;;;;21.47;51.92;92870.97;4859896;29;20057;-93
2021/09/03 15:13:43;;;;;;;3.83;1.73;;;;;;;21.68;52.34;92865.34;4847353;29;20054;-91
2021/09/03 15:16:29;;;;;;;2.38;1.50;;;;;;;21.67;51.24;92852.41;4852387;29;20135;-93
2021/09/03 15:19:36;;;;;;;3.75;1.67;;;;;;;21.72;50.75;92844.13;4865719;29;20577;-91
2021/09/03 15:23:08;;;;;;;;;;;;;;;;;;;;;
2021/09/03 15:29:14;;;;;;;3.13;1.73;;;;;;;21.20;51.55;92830.75;4836967;29;20051;-93
2021/09/03 15:32:18;;;;;;;;;;;;;;;;;;;;;
2021/09/03 15:35:31;;;;;;;1.83;1.25;;;;;;;21.75;50.49;92860.22;4850794;29;20046;-92
2021/09/03 15:38:51;;;;;;;;;;;;;;;;;;;;;
2021/09/03 15:41:29;;;;;;;;;;;;;;;;;;;;;
2021/09/03 15:44:14;;;;;;;2.78;1.75;;;;;;;21.31;51.57;92817.69;4859775;29;20046;-93
2021/09/03 15:49:57;;;;;;;4.50;2.42;;;;;;;20.83;51.99;92832.88;4837944;29;20057;-93
2021/09/03 15:52:33;;;;;;;3.88;2.08;;;;;;;20.65;52.71;92818.31;4840363;29;20046;-92
2021/09/03 15:55:39;;;;;;;;;;;;;;;;;;;;;
2021/09/03 15:59:19;;;;;;;3.70;1.92;;;;;;;21.16;52.00;92850.41;4858250;29;20512;-91
2021/09/03 16:02:29;;;;;;;2.63;1.63;;;;;;;21.32;52.74;92866.38;4835522;29;20037;-92
2021/09/03 16:06:03;;;;;;;;;;;;;;;;;;;;;
2021/09/03 16:09:05;;;;;;;4.50;2.17;;;;;;;20.93;52.57;92816.41;4866196;29;20042;-92
2021/09/03 16:20:08;;;;;;;;;;;;;;;;;;;;;
2021/09/03 16:27:07;;;;;;;3.72;1.90;;;;;;;21.13;54.00;92805.84;4852293;29;20090;-92
2021/09/03 16:30:16;;;;;;;;;;;;;;;;;;;;;
2021/09/03 16:33:26;;;;;;;5.85;2.38;;;;;;;20.76;55.52;92832.69;4867695;29;20046;-92
2021/09/03 16:36:28;;;;;;;3.40;1.90;;;;;;;20.53;55.94;92795.97;4856101;29;20117;-93
2021/09/03 16:39:07;;;;;;;4.50;1.60;;;;;;;20.75;54.51;92810.63;4874069;29;20043;-92
2021/09/03 16:42:03;;;;;;;4.15;2.25;;;;;;;20.85;54.23;92784.63;4859448;29;20050;-93
2021/09/03 16:45:12;;;;;;;3.85;2.08;;;;;;;21.19;55.96;92823.88;4843370;29;20765;-93
2021/09/03 16:48:28;;;;;;;;;;;;;;;;;;;;;
2021/09/03 16:51:31;;;;;;;;;;;;;;;;;;;;;
2021/09/03 16:54:18;;;;;;;5.85;2.20;;;;;;;20.80;56.26;92830.88;4845924;29;20049;-94
2021/09/03 16:57:24;;;;;;;2.45;1.48;;;;;;;20.20;57.42;92784.81;4849159;29;20053;-93
2021/09/03 17:00:46;;;;;;;;;;;;;;;;;;;;;
2021/09/03 17:06:54;;;;;;;2.85;1.65;;;;;;;19.61;59.67;92770.25;4820212;29;20069;-91
2021/09/03 17:10:08;;;;;;;;;;;;;;;;;;;;;
2021/09/03 17:16:12;;;;;;;3.75;2.00;;;;;;;19.42;61.00;92811.44;4802943;29;20045;-93
2021/09/03 17:18:51;;;;;;;4.07;2.00;;;;;;;19.46;61.04;92822.94;4822660;29;20311;-91
2021/09/03 17:28:59;;;;;;;;;;;;;;;;;;;;;
2021/09/03 17:32:41;;;;;;;;;;;;;;;;;;;;;
2021/09/03 17:36:02;;;;;;;3.55;2.00;;;;;;;18.52;62.38;92771.41;4821126;29;20638;-91
2021/09/03 17:39:16;;;;;;;;;;;;;;;;;;;;;
2021/09/03 17:42:07;;;;;;;;;;;;;;;;;;;;;
2021/09/03 17:45:09;;;;;;;2.38;1.70;;;;;;;18.17;63.97;92765.72;4821985;29;20060;-92
2021/09/03 17:48:13;;;;;;;3.10;1.83;;;;;;;18.16;64.60;92789.88;4818251;29;20053;-91
2021/09/03 17:51:24;;;;;;;;;;;;;;;;;;;;;
2021/09/03 17:53:56;;;;;;;7.22;1.80;;;;;;;18.05;65.24;92795.56;4829568;29;20057;-92
2021/09/03 17:57:02;;;;;;;;;;;;;;;;;;;;;
2021/09/03 18:00:27;;;;;;;3.20;1.92;;;;;;;17.56;66.10;92766.19;4838243;29;20041;-92
2021/09/03 18:06:55;;;;;;;3.70;2.38;;;;;;;17.38;66.29;92762.88;4835414;29;20056;-93
2021/09/03 18:18:00;;;;;;;3.65;2.25;;;;;;;17.06;66.32;92766.91;4850024;29;20057;-92
2021/09/03 18:20:17;;;;;;;5.18;2.15;;;;;;;17.39;66.77;92827.13;4842584;29;20056;-92
2021/09/03 18:22:55;;;;;;;2.92;1.90;;;;;;;17.19;66.69;92813.53;4856607;29;20052;-93
2021/09/03 18:26:17;;;;;;;;;;;;;;;;;;;;;
2021/09/03 18:33:14;;;;;;;2.70;1.83;;;;;;;16.74;67.16;92776.97;4851292;29;20084;-95
2021/09/03 18:36:11;;;;;;;2.35;1.65;;;;;;;16.74;67.31;92787.56;4841206;29;20549;-95
2021/09/03 18:52:56;;;;;;;;;;;;;;;;;;;;;
2021/09/03 18:56:43;;;;;;;3.05;1.77;;;;;;;16.54;67.89;92814.66;4849524;29;20059;-95
2021/09/03 18:59:35;;;;;;;3.17;1.63;;;;;;;16.42;68.00;92794.97;4789997;29;20054;-95
2021/09/03 19:03:04;;;;;;;;;;;;;;;;;;;;;
2021/09/03 19:05:48;;;;;;;4.50;2.28;;;;;;;16.47;67.98;92815.16;4788091;29;19964;-95
2021/09/03 19:09:00;;;;;;;3.88;2.15;;;;;;;16.39;68.19;92802.72;4823479;29;20105;-96
2021/09/03 19:12:36;;;;;;;;;;;;;;;;;;;;;
2021/09/03 19:15:46;;;;;;;3.13;1.48;;;;;;;16.34;68.01;92805.53;4845910;29;20053;-94
2021/09/03 19:19:06;;;;;;;;;;;;;;;;;;;;;
2021/09/03 19:21:54;;;;;;;;;;;;;;;;;;;;;
2021/09/03 19:25:23;;;;;;;3.22;1.92;;;;;;;16.21;68.06;92794.84;4850800;29;20046;-94
2021/09/03 19:28:28;;;;;;;4.13;1.95;;;;;;;16.55;68.48;92840.00;4859731;29;20053;-94
2021/09/03 19:40:53;;;;;;;4.07;1.77;;;;;;;16.15;68.25;92787.41;4782334;29;20057;-94
2021/09/03 19:47:36;;;;;;;;;;;;;;;;;;;;;
2021/09/03 19:50:22;;;;;;;3.95;1.92;;;;;;;16.22;68.00;92798.25;4782431;29;20051;-95
2021/09/03 19:54:11;;;;;;;;;;;;;;;;;;;;;
2021/09/03 19:57:26;;;;;;;4.43;2.10;;;;;;;16.27;68.49;92798.09;4742431;30;20048;-95
2021/09/03 20:00:50;;;;;;;2.42;1.48;;;;;;;16.65;68.50;92852.88;4720214;30;20065;-95
2021/09/03 20:07:28;;;;;;;4.40;2.15;;;;;;;16.58;68.12;92840.16;4773968;29;20063;-95
2021/09/03 20:10:49;;;;;;;;;;;;;;;;;;;;;
2021/09/03 20:14:14;;;;;;;;;;;;;;;;;;;;;
2021/09/03 20:21:04;;;;;;;2.78;1.73;;;;;;;16.34;67.98;92782.53;4847599;29;20518;-94
2021/09/03 20:27:45;;;;;;;;;;;;;;;;;;;;;
2021/09/03 20:30:40;;;;;;;3.70;1.77;;;;;;;16.41;68.88;92806.63;4858099;29;20077;-95
2021/09/03 20:34:23;;;;;;;;;;;;;;;;;;;;;
2021/09/03 20:37:27;;;;;;;2.75;1.63;;;;;;;16.16;68.79;92784.44;4869581;29;20049;-94
2021/09/03 20:40:34;;;;;;;;;;;;;;;;;;;;;
2021/09/03 20:43:36;;;;;;;;;;;;;;;;;;;;;
2021/09/03 20:46:28;;;;;;;3.05;1.70;;;;;;;16.09;69.04;92778.84;4852112;29;20049;-94
2021/09/03 20:50:14;;;;;;;;;;;;;;;;;;;;;
2021/09/03 20:53:17;;;;;;;;;;;;;;;;;;;;;
2021/09/03 20:56:45;;;;;;;2.55;1.85;;;;;;;16.06;69.49;92805.13;4762840;30;20047;-94
2021/09/03 20:59:38;;;;;;;4.93;1.70;;;;;;;15.84;69.45;92772.50;4786447;29;20057;-93
2021/09/03 21:09:10;;;;;;;2.42;1.40;;;;;;;16.08;69.64;92826.72;4811372;29;20094;-92
2021/09/03 21:12:13;;;;;;;3.00;1.73;;;;;;;15.68;69.39;92785.34;4803566;29;20048;-94
2021/09/03 21:15:41;;;;;;;2.83;1.90;;;;;;;16.06;69.32;92837.56;4805829;29;20050;-93
2021/09/03 21:18:30;;;;;;;3.05;1.77;;;;;;;15.60;69.79;92783.47;4834269;29;20124;-93
2021/09/03 21:21:35;;;;;;;4.53;2.10;;;;;;;15.55;69.83;92781.78;4814691;29;20046;-93
2021/09/03 21:24:16;;;;;;;3.03;2.00;;;;;;;15.72;70.12;92817.22;4819057;29;20407;-92
2021/09/03 21:27:07;;;;;;;;;;;;;;;;;;;;;